Impacts TAF Board INFO
FOR SITUATIONAL AWARENESS. NOT TO BE USED FOR FLIGHT PLANNING PURPOSES.
IDs:

KDCA - Washington/National, VA, US

Issued at 2334 UTC 22 Jun 2018
Updated at 0017 UTC 23 Jun 2018
Potential Impact None Slight Moderate High
Time2352Z 23/01Z 23/02Z 23/03Z 23/04Z 23/05Z 23/06Z 23/07Z 23/08Z 23/09Z 23/10Z 23/11Z 23/12Z 23/13Z>>
Type OBS PRVL PRVL PRVL PRVL PRVL PRVL PRVL PRVL PRVL PRVL PRVL PRVL PRVL
VIS 10 5 5 5 5 5 2 2 2 2 2 2 2 2
CIG 10 10 10 10 10 10 5 5 5 5 5 5 5 5
Cover OVC OVC OVC OVC OVC OVC OVC OVC OVC OVC OVC OVC OVC OVC
FltCat MVFR MVFR MVFR MVFR MVFR MVFR IFR IFR IFR IFR IFR IFR IFR IFR
WX -- -SHRA -SHDZ BR -SHRA -SHDZ BR -SHRA -SHDZ BR -SHRA -SHDZ BR -SHRA -SHDZ BR -DZ BR -DZ BR -DZ BR -DZ BR -DZ BR -DZ BR -DZ BR -DZ BR
WDir 60 80 80 80 80 80 80 80 80 80 80 80 80 80
WSpd 12 10 10 10 10 10 6 6 6 6 6 6 6 6
WGst -- 18 18 18 18 18 -- -- -- -- -- -- -- --

Raw TAF
KDCA 222334Z 2300/2406 08010G18KT 5SM -SHRADZ BR BKN010 OVC025
  FM230600 08006KT 2SM -DZ BR BKN005 OVC025
  FM231500 18005KT P6SM SCT025 OVC060
  FM231900 21009KT P6SM SCT035 BKN050
  FM240100 23005KT P6SM SCT050 BKN250


Raw METAR
KDCA 222352Z 06012KT 10SM OVC010 21/18 A2988 RMK AO2 RAE25 SLP119 P0001 60004 T02060178 10228 20206 58003
KDCA 222252Z 02006KT 10SM -RA OVC012 21/18 A2990 RMK AO2 RAB48 SLP125 P0000 T02060178
KDCA 222228Z 05009KT 10SM OVC012 21/18 A2989 RMK AO2 T02060183
KDCA 222152Z 06010KT 10SM BKN013 OVC023 21/18 A2988 RMK AO2 RAE15 SLP119 P0000 T02060183

METAR Board
Radar Display
Forecast Discussion

FOR SITUATIONAL AWARENESS. NOT TO BE USED FOR FLIGHT PLANNING PURPOSES.